Time;durP1;ratioP1;P1;durP2;ratioP2;P2;SDS_P1;SDS_P2;PMS_P1;PMS_P2;Temp;Humidity;BMP_temperature;BMP_pressure;BME280_temperature;BME280_humidity;BME280_pressure;Samples;Min_cycle;Max_cycle;Signal;HPM_P1;HPM_P2
2022/05/12 00:01:26;;;;;;;8.93;6.10;;;;;;;;;;5036791;28;20049;-81
2022/05/12 00:04:11;;;;;;;8.85;5.80;;;;;;;;;;5042839;28;20049;-80
2022/05/12 00:06:57;;;;;;;12.93;6.38;;;;;;;;;;5037018;28;20050;-80
2022/05/12 00:09:42;;;;;;;11.23;6.22;;;;;;;;;;5043176;28;20045;-80
2022/05/12 00:12:28;;;;;;;9.93;6.40;;;;;;;;;;5043376;28;20395;-79
2022/05/12 00:15:22;;;;;;;10.73;6.55;;;;;;;;;;5035980;28;20045;-80
2022/05/12 00:18:08;;;;;;;9.65;6.57;;;;;;;;;;5035944;28;20049;-80
2022/05/12 00:20:53;;;;;;;11.60;7.05;;;;;;;;;;5036532;28;20057;-81
2022/05/12 00:23:38;;;;;;;7.90;6.10;;;;;;;;;;5042929;28;20045;-80
2022/05/12 00:26:30;;;;;;;8.85;6.18;;;;;;;;;;5042693;28;20049;-80
2022/05/12 00:29:16;;;;;;;11.57;6.30;;;;;;;;;;5042972;28;20472;-80
2022/05/12 00:32:01;;;;;;;8.13;5.63;;;;;;;;;;5035962;28;20388;-80
2022/05/12 00:34:47;;;;;;;8.50;5.75;;;;;;;;;;5021296;28;20049;-80
2022/05/12 00:37:32;;;;;;;7.20;6.13;;;;;;;;;;5035879;28;20464;-80
2022/05/12 00:40:18;;;;;;;9.77;6.00;;;;;;;;;;5042766;28;20045;-81
2022/05/12 00:43:07;;;;;;;7.00;5.60;;;;;;;;;;5042462;28;20045;-80
2022/05/12 00:45:52;;;;;;;9.95;5.70;;;;;;;;;;5035372;28;20045;-80
2022/05/12 00:48:38;;;;;;;8.18;5.75;;;;;;;;;;5042827;28;20045;-80
2022/05/12 00:51:32;;;;;;;7.05;5.95;;;;;;;;;;5042158;28;20049;-80
2022/05/12 00:54:39;;;;;;;11.32;5.90;;;;;;;;;;5042048;28;20045;-80
2022/05/12 00:57:28;;;;;;;8.40;6.32;;;;;;;;;;5042233;28;20041;-81
2022/05/12 01:00:15;;;;;;;10.25;6.55;;;;;;;;;;5042017;28;20057;-80
2022/05/12 01:03:05;;;;;;;7.70;6.75;;;;;;;;;;5042353;28;20376;-80
2022/05/12 01:05:51;;;;;;;7.03;5.93;;;;;;;;;;5035259;28;20045;-80
2022/05/12 01:08:37;;;;;;;8.25;5.70;;;;;;;;;;5042408;28;20045;-80
2022/05/12 01:11:23;;;;;;;7.75;5.78;;;;;;;;;;5042126;28;20045;-80
2022/05/12 01:14:09;;;;;;;7.22;5.93;;;;;;;;;;5034821;28;20049;-81
2022/05/12 01:16:58;;;;;;;10.70;5.78;;;;;;;;;;5035632;28;20464;-80
2022/05/12 01:19:43;;;;;;;7.28;5.55;;;;;;;;;;5035158;28;20046;-81
2022/05/12 01:22:52;;;;;;;7.15;5.68;;;;;;;;;;5042533;28;20045;-80
2022/05/12 01:25:37;;;;;;;8.75;6.13;;;;;;;;;;5035492;28;20045;-80
2022/05/12 01:28:23;;;;;;;8.20;6.32;;;;;;;;;;5041476;28;20049;-80
2022/05/12 01:31:13;;;;;;;7.97;6.03;;;;;;;;;;5040815;28;20050;-79
2022/05/12 01:33:59;;;;;;;7.78;5.85;;;;;;;;;;5041672;28;20045;-80
2022/05/12 01:36:44;;;;;;;7.88;6.22;;;;;;;;;;5035607;28;20037;-80
2022/05/12 01:39:30;;;;;;;8.43;6.20;;;;;;;;;;5041852;28;20480;-80
2022/05/12 01:42:16;;;;;;;9.77;5.75;;;;;;;;;;5041401;28;20045;-80
2022/05/12 01:45:03;;;;;;;7.38;5.90;;;;;;;;;;5041446;28;20408;-80
2022/05/12 01:47:50;;;;;;;8.98;6.47;;;;;;;;;;5041441;28;20049;-80
2022/05/12 01:50:36;;;;;;;9.88;6.28;;;;;;;;;;5041455;28;20045;-79
2022/05/12 01:53:22;;;;;;;8.00;5.95;;;;;;;;;;5041654;28;20046;-79
2022/05/12 01:56:08;;;;;;;9.95;6.70;;;;;;;;;;5034061;28;20041;-79
2022/05/12 01:58:53;;;;;;;12.00;5.95;;;;;;;;;;5041025;28;20481;-80
2022/05/12 02:01:39;;;;;;;7.13;6.03;;;;;;;;;;5041026;28;20046;-80
2022/05/12 02:04:25;;;;;;;6.90;5.72;;;;;;;;;;5028887;28;20045;-80
2022/05/12 02:07:10;;;;;;;6.95;5.57;;;;;;;;;;5034361;28;20045;-80
2022/05/12 02:09:55;;;;;;;9.57;6.10;;;;;;;;;;5033695;28;20041;-80
2022/05/12 02:12:40;;;;;;;8.57;5.75;;;;;;;;;;5035047;28;20049;-80
2022/05/12 02:15:26;;;;;;;8.00;6.10;;;;;;;;;;5039776;28;20045;-80
2022/05/12 02:18:11;;;;;;;10.07;6.38;;;;;;;;;;5041625;28;20041;-81
2022/05/12 02:20:58;;;;;;;7.70;6.00;;;;;;;;;;5044335;28;20046;-80
2022/05/12 02:23:43;;;;;;;8.02;6.50;;;;;;;;;;5041334;28;20041;-77
2022/05/12 02:26:29;;;;;;;9.77;6.78;;;;;;;;;;5041071;28;20049;-80
2022/05/12 02:29:15;;;;;;;9.77;7.25;;;;;;;;;;5040708;28;20049;-80
2022/05/12 02:32:00;;;;;;;9.13;7.25;;;;;;;;;;5040621;28;20484;-80
2022/05/12 02:34:46;;;;;;;9.75;7.30;;;;;;;;;;5040514;28;20045;-81
2022/05/12 02:37:32;;;;;;;11.68;7.40;;;;;;;;;;5033659;28;20045;-80
2022/05/12 02:40:20;;;;;;;10.57;6.88;;;;;;;;;;5040414;28;20484;-80
2022/05/12 02:43:23;;;;;;;9.18;7.45;;;;;;;;;;5040727;28;20045;-80
2022/05/12 02:46:12;;;;;;;12.07;7.60;;;;;;;;;;5040397;28;20053;-80
2022/05/12 02:48:58;;;;;;;10.15;7.78;;;;;;;;;;5040952;28;20480;-80
2022/05/12 02:51:43;;;;;;;13.90;7.28;;;;;;;;;;5040075;28;20049;-80
2022/05/12 02:54:29;;;;;;;10.73;7.88;;;;;;;;;;5034026;28;20050;-80
2022/05/12 02:57:15;;;;;;;12.23;7.82;;;;;;;;;;5040313;28;20045;-80
2022/05/12 03:00:01;;;;;;;7.63;6.65;;;;;;;;;;5033967;28;20046;-80
2022/05/12 03:02:46;;;;;;;11.45;7.68;;;;;;;;;;5040606;28;20049;-80
2022/05/12 03:05:33;;;;;;;13.98;8.02;;;;;;;;;;5033553;28;20422;-80
2022/05/12 03:08:20;;;;;;;13.63;8.23;;;;;;;;;;5033856;28;20041;-80
2022/05/12 03:11:05;;;;;;;11.63;7.65;;;;;;;;;;5040385;28;20045;-79
2022/05/12 03:13:51;;;;;;;12.50;8.13;;;;;;;;;;5039834;28;20057;-80
2022/05/12 03:16:37;;;;;;;12.55;8.57;;;;;;;;;;5033619;28;20057;-80
2022/05/12 03:19:22;;;;;;;11.55;8.77;;;;;;;;;;5040002;28;20472;-81
2022/05/12 03:22:08;;;;;;;12.35;8.20;;;;;;;;;;5035892;28;20049;-80
2022/05/12 03:24:53;;;;;;;11.38;8.07;;;;;;;;;;5043914;28;20476;-80
2022/05/12 03:27:40;;;;;;;9.98;7.82;;;;;;;;;;5037303;28;20041;-80
2022/05/12 03:30:25;;;;;;;11.25;7.57;;;;;;;;;;5044605;28;20045;-80
2022/05/12 03:33:11;;;;;;;11.98;8.20;;;;;;;;;;5043909;28;20046;-80
2022/05/12 03:35:58;;;;;;;11.73;7.13;;;;;;;;;;5043645;28;20045;-81
2022/05/12 03:38:43;;;;;;;10.27;7.72;;;;;;;;;;5043932;28;20041;-80
2022/05/12 03:41:30;;;;;;;10.98;8.27;;;;;;;;;;5043207;28;20061;-81
2022/05/12 03:47:38;;;;;;;11.32;8.20;;;;;;;;;;5030426;28;20046;-80
2022/05/12 03:50:25;;;;;;;12.35;8.32;;;;;;;;;;5044067;28;20053;-80
2022/05/12 03:53:10;;;;;;;10.68;7.53;;;;;;;;;;5043650;28;20045;-80
2022/05/12 03:55:55;;;;;;;8.95;7.38;;;;;;;;;;5037135;28;20049;-80
2022/05/12 03:58:40;;;;;;;17.88;8.20;;;;;;;;;;5043330;28;20045;-81
2022/05/12 04:01:26;;;;;;;12.48;7.57;;;;;;;;;;5043249;28;20136;-80
2022/05/12 04:04:11;;;;;;;10.27;7.28;;;;;;;;;;5044040;28;20465;-80
2022/05/12 04:06:57;;;;;;;11.32;7.22;;;;;;;;;;5043516;28;20388;-81
2022/05/12 04:09:43;;;;;;;17.33;7.22;;;;;;;;;;5043155;28;20045;-80
2022/05/12 04:12:28;;;;;;;12.00;7.88;;;;;;;;;;5043552;28;20057;-81
2022/05/12 04:15:15;;;;;;;11.70;8.10;;;;;;;;;;5042234;28;20045;-80
2022/05/12 04:18:06;;;;;;;14.38;8.02;;;;;;;;;;5042902;28;20368;-80
2022/05/12 04:20:52;;;;;;;17.58;8.05;;;;;;;;;;5042959;28;20471;-80
2022/05/12 04:23:38;;;;;;;12.02;7.53;;;;;;;;;;5042844;28;20053;-79
2022/05/12 04:26:23;;;;;;;17.23;8.23;;;;;;;;;;5042816;28;20054;-81
2022/05/12 04:29:08;;;;;;;12.55;7.95;;;;;;;;;;5042885;28;20053;-80
2022/05/12 04:31:55;;;;;;;12.30;8.85;;;;;;;;;;5043177;28;20041;-80
2022/05/12 04:37:51;;;;;;;14.15;9.23;;;;;;;;;;5042359;28;20049;-80
2022/05/12 04:40:36;;;;;;;12.60;8.77;;;;;;;;;;5042632;28;20472;-80
2022/05/12 04:43:21;;;;;;;17.23;9.23;;;;;;;;;;5035794;28;20049;-81
2022/05/12 04:46:07;;;;;;;15.82;9.20;;;;;;;;;;5036168;28;20045;-80
2022/05/12 04:48:52;;;;;;;19.80;8.93;;;;;;;;;;5027820;28;20045;-80
2022/05/12 04:51:37;;;;;;;16.00;9.50;;;;;;;;;;5042361;28;20488;-81
2022/05/12 04:54:24;;;;;;;21.23;8.85;;;;;;;;;;5042648;28;20049;-81
2022/05/12 04:57:09;;;;;;;19.55;11.02;;;;;;;;;;5042421;28;20041;-81
2022/05/12 04:59:55;;;;;;;17.58;9.13;;;;;;;;;;5045409;28;20042;-81
2022/05/12 05:02:41;;;;;;;19.90;9.98;;;;;;;;;;5045283;28;20042;-79
2022/05/12 05:05:26;;;;;;;21.27;10.88;;;;;;;;;;5036897;28;20401;-79
2022/05/12 05:08:15;;;;;;;16.95;8.93;;;;;;;;;;5042853;28;20041;-80
2022/05/12 05:11:00;;;;;;;16.85;8.90;;;;;;;;;;5041882;28;20053;-81
2022/05/12 05:13:46;;;;;;;13.13;8.38;;;;;;;;;;5027344;28;20481;-80
2022/05/12 05:16:31;;;;;;;14.63;8.15;;;;;;;;;;5019510;28;20057;-82
2022/05/12 05:19:17;;;;;;;18.05;8.50;;;;;;;;;;5028731;28;20045;-81
2022/05/12 05:22:03;;;;;;;14.63;7.90;;;;;;;;;;5035152;28;20037;-80
2022/05/12 05:24:48;;;;;;;15.25;8.32;;;;;;;;;;5044472;28;20053;-80
2022/05/12 05:27:35;;;;;;;24.52;8.75;;;;;;;;;;5055156;28;20045;-81
2022/05/12 05:30:23;;;;;;;13.35;8.27;;;;;;;;;;5038984;28;20054;-81
2022/05/12 05:33:09;;;;;;;14.50;8.77;;;;;;;;;;5041424;28;20404;-81
2022/05/12 05:35:55;;;;;;;16.67;8.45;;;;;;;;;;5041403;28;20057;-81
2022/05/12 05:38:40;;;;;;;12.65;7.60;;;;;;;;;;5028632;28;20042;-81
2022/05/12 05:41:25;;;;;;;11.85;7.68;;;;;;;;;;5047683;28;20040;-81
2022/05/12 05:44:10;;;;;;;18.00;7.97;;;;;;;;;;5051903;28;20045;-81
2022/05/12 05:46:56;;;;;;;17.85;8.45;;;;;;;;;;5031308;28;20069;-81
2022/05/12 05:49:41;;;;;;;11.65;8.65;;;;;;;;;;5024308;28;20393;-80
2022/05/12 05:55:32;;;;;;;13.43;7.55;;;;;;;;;;5034848;28;20046;-81
2022/05/12 05:58:18;;;;;;;11.98;7.05;;;;;;;;;;5015107;28;20385;-81
2022/05/12 06:01:03;;;;;;;15.30;7.57;;;;;;;;;;5014665;28;20469;-81
2022/05/12 06:04:00;;;;;;;12.07;7.60;;;;;;;;;;5026142;28;20405;-81
2022/05/12 06:06:57;;;;;;;19.83;7.63;;;;;;;;;;5014405;28;20483;-80
2022/05/12 06:09:43;;;;;;;13.38;7.88;;;;;;;;;;5034246;28;20041;-80
2022/05/12 06:12:30;;;;;;;12.65;8.77;;;;;;;;;;5041330;28;20053;-81
2022/05/12 06:15:16;;;;;;;16.73;8.43;;;;;;;;;;5025162;28;20411;-81
2022/05/12 06:18:14;;;;;;;15.48;7.65;;;;;;;;;;5041116;28;20124;-81
2022/05/12 06:20:59;;;;;;;12.45;8.00;;;;;;;;;;5033640;28;20041;-80
2022/05/12 06:23:45;;;;;;;13.35;7.32;;;;;;;;;;5030723;28;20045;-80
2022/05/12 06:26:29;;;;;;;15.65;7.43;;;;;;;;;;5033854;28;20045;-80
2022/05/12 06:29:15;;;;;;;14.90;6.57;;;;;;;;;;5033545;28;20049;-80
2022/05/12 06:32:01;;;;;;;11.57;7.13;;;;;;;;;;5035714;28;20045;-79
2022/05/12 06:34:47;;;;;;;14.57;7.00;;;;;;;;;;5027371;28;20480;-80
2022/05/12 06:37:32;;;;;;;12.88;6.53;;;;;;;;;;5037240;28;20049;-78
2022/05/12 06:40:19;;;;;;;12.93;6.72;;;;;;;;;;5040610;28;20053;-79
2022/05/12 06:43:06;;;;;;;10.98;7.05;;;;;;;;;;5039855;28;20045;-80
2022/05/12 06:45:51;;;;;;;13.32;6.57;;;;;;;;;;5030110;28;20049;-77
2022/05/12 06:48:37;;;;;;;14.93;6.72;;;;;;;;;;5028548;28;20045;-78
2022/05/12 06:51:23;;;;;;;11.80;6.82;;;;;;;;;;5026934;28;20046;-78
2022/05/12 06:54:09;;;;;;;10.18;6.93;;;;;;;;;;5028101;28;20061;-79
2022/05/12 06:56:54;;;;;;;12.93;6.03;;;;;;;;;;5024754;28;20046;-79
2022/05/12 06:59:40;;;;;;;13.77;6.63;;;;;;;;;;5038230;28;20049;-81
2022/05/12 07:02:27;;;;;;;15.07;6.85;;;;;;;;;;5039232;28;20045;-80
2022/05/12 07:05:15;;;;;;;12.80;6.63;;;;;;;;;;5031221;28;20476;-80
2022/05/12 07:08:00;;;;;;;13.32;6.90;;;;;;;;;;5059493;28;20057;-80
2022/05/12 07:10:45;;;;;;;14.40;6.93;;;;;;;;;;5039805;28;20049;-78
2022/05/12 07:13:31;;;;;;;9.80;6.95;;;;;;;;;;5040124;28;20045;-79
2022/05/12 07:16:16;;;;;;;14.88;6.70;;;;;;;;;;5036649;28;20045;-79
2022/05/12 07:19:02;;;;;;;17.42;6.47;;;;;;;;;;5039929;28;20046;-80
2022/05/12 07:27:54;;;;;;;16.35;6.15;;;;;;;;;;5042760;28;20045;-82
2022/05/12 07:33:45;;;;;;;15.23;6.35;;;;;;;;;;5060232;28;20053;-80
2022/05/12 07:36:37;;;;;;;16.30;7.45;;;;;;;;;;5062061;28;20045;-80
2022/05/12 07:39:27;;;;;;;18.85;6.57;;;;;;;;;;5053387;28;20488;-80
2022/05/12 07:42:12;;;;;;;11.15;6.00;;;;;;;;;;5026938;28;20037;-80
2022/05/12 07:44:58;;;;;;;13.32;6.97;;;;;;;;;;5040147;28;20061;-79
2022/05/12 07:47:43;;;;;;;12.10;7.20;;;;;;;;;;5039088;28;20053;-80
2022/05/12 07:50:28;;;;;;;14.60;7.60;;;;;;;;;;5020027;28;20050;-80
2022/05/12 07:53:14;;;;;;;12.73;7.43;;;;;;;;;;5012929;28;20053;-79
2022/05/12 07:56:00;;;;;;;12.85;7.20;;;;;;;;;;5016485;28;20042;-79
2022/05/12 07:58:47;;;;;;;13.07;7.43;;;;;;;;;;5020469;28;20042;-81
2022/05/12 08:01:33;;;;;;;17.20;7.72;;;;;;;;;;5019295;28;20046;-81
2022/05/12 08:04:18;;;;;;;17.15;7.68;;;;;;;;;;5026486;28;20045;-80
2022/05/12 08:07:04;;;;;;;11.27;6.93;;;;;;;;;;5026061;28;20049;-80
2022/05/12 08:09:49;;;;;;;16.73;6.63;;;;;;;;;;5036692;28;20476;-80
2022/05/12 08:12:35;;;;;;;16.48;6.60;;;;;;;;;;5063075;28;20387;-81
2022/05/12 08:15:22;;;;;;;12.38;6.70;;;;;;;;;;5031932;28;20045;-79
2022/05/12 08:18:08;;;;;;;13.88;6.90;;;;;;;;;;5022757;28;20049;-81
2022/05/12 08:20:54;;;;;;;9.88;6.45;;;;;;;;;;5033947;28;20061;-81
2022/05/12 08:23:41;;;;;;;11.75;5.90;;;;;;;;;;5019341;28;20045;-82
2022/05/12 08:26:26;;;;;;;13.68;6.00;;;;;;;;;;5022661;28;20456;-81
2022/05/12 08:29:11;;;;;;;12.45;5.43;;;;;;;;;;5015799;28;20045;-82
2022/05/12 08:31:57;;;;;;;14.23;6.03;;;;;;;;;;5016556;28;20038;-81
2022/05/12 08:34:43;;;;;;;14.73;5.63;;;;;;;;;;5024262;28;20042;-81
2022/05/12 08:37:28;;;;;;;11.63;5.25;;;;;;;;;;5031781;28;20050;-82
2022/05/12 08:40:24;;;;;;;13.07;5.72;;;;;;;;;;5034602;28;20081;-82
2022/05/12 08:43:22;;;;;;;13.82;6.32;;;;;;;;;;5043731;28;20049;-81
2022/05/12 08:46:32;;;;;;;13.18;5.70;;;;;;;;;;5034257;28;20488;-80
2022/05/12 08:49:27;;;;;;;12.02;6.75;;;;;;;;;;5017550;28;20057;-81
2022/05/12 08:52:24;;;;;;;9.73;5.80;;;;;;;;;;5030970;28;20049;-81
2022/05/12 08:55:25;;;;;;;16.50;5.90;;;;;;;;;;5041888;28;20045;-80
2022/05/12 08:58:23;;;;;;;9.40;5.45;;;;;;;;;;5031837;28;20053;-80
2022/05/12 09:01:18;;;;;;;13.75;5.72;;;;;;;;;;5040132;28;20053;-82
2022/05/12 09:04:25;;;;;;;10.25;4.47;;;;;;;;;;5047639;28;20052;-82
2022/05/12 09:07:16;;;;;;;9.50;4.80;;;;;;;;;;5056667;28;20053;-82
2022/05/12 09:10:21;;;;;;;10.38;5.32;;;;;;;;;;5030819;28;20060;-81
2022/05/12 09:13:15;;;;;;;15.80;4.35;;;;;;;;;;5032902;28;20045;-80
2022/05/12 09:16:22;;;;;;;9.77;4.50;;;;;;;;;;5034975;28;20053;-80
2022/05/12 09:19:09;;;;;;;9.10;4.78;;;;;;;;;;5041643;28;20054;-81
2022/05/12 09:21:56;;;;;;;18.48;4.97;;;;;;;;;;5029127;28;20049;-81
2022/05/12 09:24:41;;;;;;;9.52;5.00;;;;;;;;;;5017955;28;20038;-81
2022/05/12 09:27:36;;;;;;;9.82;5.05;;;;;;;;;;5041104;28;20412;-82
2022/05/12 09:30:32;;;;;;;9.32;4.13;;;;;;;;;;5041400;28;20392;-80
2022/05/12 09:33:29;;;;;;;10.35;4.95;;;;;;;;;;5035242;28;20053;-81
2022/05/12 09:36:27;;;;;;;7.53;3.60;;;;;;;;;;5026596;28;20404;-82
2022/05/12 09:39:35;;;;;;;7.07;4.03;;;;;;;;;;5020592;28;20049;-82
2022/05/12 09:42:27;;;;;;;10.40;3.25;;;;;;;;;;5039119;28;20404;-82
2022/05/12 09:45:34;;;;;;;10.68;3.85;;;;;;;;;;5026473;28;20045;-82
2022/05/12 09:48:27;;;;;;;9.07;3.65;;;;;;;;;;5032061;28;20048;-82
2022/05/12 09:51:24;;;;;;;8.82;4.65;;;;;;;;;;5040326;28;20046;-81
2022/05/12 09:54:26;;;;;;;7.40;3.38;;;;;;;;;;5034238;28;20092;-82
2022/05/12 09:57:20;;;;;;;10.75;4.88;;;;;;;;;;5045126;28;20049;-80
2022/05/12 10:00:07;;;;;;;8.93;4.13;;;;;;;;;;5040348;28;20053;-79
2022/05/12 10:09:23;;;;;;;10.77;2.78;;;;;;;;;;5030894;28;20041;-81
2022/05/12 10:12:22;;;;;;;4.47;2.50;;;;;;;;;;5047563;28;20476;-79
2022/05/12 10:15:49;;;;;;;5.55;2.60;;;;;;;;;;5037575;28;20045;-80
2022/05/12 10:18:43;;;;;;;5.95;2.83;;;;;;;;;;4986331;28;20050;-78
2022/05/12 10:21:42;;;;;;;5.82;3.28;;;;;;;;;;5027683;28;20050;-80
2022/05/12 10:24:52;;;;;;;6.57;3.10;;;;;;;;;;5040745;28;20045;-80
2022/05/12 10:28:06;;;;;;;3.70;2.40;;;;;;;;;;5044826;28;20056;-81
2022/05/12 10:31:11;;;;;;;5.97;2.80;;;;;;;;;;5020266;28;20045;-80
2022/05/12 10:34:19;;;;;;;6.22;2.60;;;;;;;;;;5020582;28;20054;-81
2022/05/12 10:37:23;;;;;;;4.50;2.80;;;;;;;;;;5016301;28;20493;-81
2022/05/12 10:40:41;;;;;;;3.35;2.50;;;;;;;;;;5045595;28;20044;-81
2022/05/12 10:43:51;;;;;;;4.63;2.72;;;;;;;;;;5038235;28;20094;-80
2022/05/12 10:46:46;;;;;;;3.90;2.47;;;;;;;;;;5016519;28;20057;-79
2022/05/12 10:49:43;;;;;;;13.70;3.60;;;;;;;;;;5017880;28;20050;-80
2022/05/12 10:52:47;;;;;;;7.43;2.80;;;;;;;;;;5030219;28;20046;-80
2022/05/12 10:56:00;;;;;;;4.82;2.97;;;;;;;;;;5039840;28;20404;-81
2022/05/12 10:58:49;;;;;;;5.72;2.90;;;;;;;;;;5040494;28;20042;-80
2022/05/12 11:01:43;;;;;;;6.22;2.90;;;;;;;;;;5033503;28;20049;-81
2022/05/12 11:04:34;;;;;;;7.93;2.83;;;;;;;;;;5032174;28;20037;-83
2022/05/12 11:07:42;;;;;;;6.03;2.83;;;;;;;;;;5038244;28;20057;-80
2022/05/12 11:10:41;;;;;;;8.55;2.97;;;;;;;;;;5015485;28;20054;-80
2022/05/12 11:13:34;;;;;;;8.52;3.03;;;;;;;;;;5020845;28;20050;-80
2022/05/12 11:16:26;;;;;;;11.93;3.15;;;;;;;;;;5033966;28;20049;-81
2022/05/12 11:19:20;;;;;;;4.18;2.80;;;;;;;;;;5037319;28;20041;-82
2022/05/12 11:22:10;;;;;;;6.03;3.38;;;;;;;;;;5033689;28;20046;-81
2022/05/12 11:25:13;;;;;;;6.40;3.47;;;;;;;;;;5039036;28;20403;-82
2022/05/12 11:31:40;;;;;;;9.85;3.35;;;;;;;;;;5039564;28;20484;-81
2022/05/12 11:34:27;;;;;;;8.80;3.50;;;;;;;;;;5039691;28;20049;-81
2022/05/12 11:37:32;;;;;;;4.63;2.90;;;;;;;;;;5032962;28;20042;-81
2022/05/12 11:40:48;;;;;;;6.13;2.97;;;;;;;;;;5033061;28;20045;-80
2022/05/12 11:47:03;;;;;;;8.07;3.25;;;;;;;;;;5027765;28;20491;-80
2022/05/12 11:49:51;;;;;;;7.18;3.20;;;;;;;;;;5008478;28;20424;-79
2022/05/12 11:52:53;;;;;;;6.05;2.90;;;;;;;;;;5016993;28;20042;-81
2022/05/12 11:56:03;;;;;;;8.38;3.08;;;;;;;;;;5025695;28;20050;-81
2022/05/12 11:59:18;;;;;;;11.23;3.33;;;;;;;;;;5036678;28;20046;-79
2022/05/12 12:02:29;;;;;;;3.90;2.60;;;;;;;;;;5042926;28;20420;-80
2022/05/12 12:05:47;;;;;;;7.18;2.92;;;;;;;;;;5050884;28;20426;-81
2022/05/12 12:08:32;;;;;;;7.47;3.20;;;;;;;;;;5023053;28;20042;-80
2022/05/12 12:11:20;;;;;;;5.63;3.17;;;;;;;;;;5023342;28;20050;-79
2022/05/12 12:14:06;;;;;;;7.40;3.10;;;;;;;;;;5045900;28;20045;-80
2022/05/12 12:17:03;;;;;;;7.78;2.90;;;;;;;;;;5046273;28;20483;-80
2022/05/12 12:19:52;;;;;;;7.63;3.08;;;;;;;;;;5063689;28;20041;-81
2022/05/12 12:22:45;;;;;;;6.70;3.33;;;;;;;;;;5043562;28;20057;-80
2022/05/12 12:25:40;;;;;;;6.45;3.00;;;;;;;;;;5024977;28;20401;-80
2022/05/12 12:29:02;;;;;;;6.70;3.08;;;;;;;;;;5022652;28;20038;-79
2022/05/12 12:31:53;;;;;;;5.57;2.95;;;;;;;;;;5021286;28;20469;-81
2022/05/12 12:34:49;;;;;;;10.38;2.92;;;;;;;;;;5030333;28;20416;-81
2022/05/12 12:37:44;;;;;;;9.52;2.90;;;;;;;;;;5042875;28;20400;-79
2022/05/12 12:40:33;;;;;;;7.97;3.25;;;;;;;;;;5042772;28;20049;-80
2022/05/12 12:43:27;;;;;;;9.68;3.15;;;;;;;;;;5033719;28;20041;-80
2022/05/12 12:46:45;;;;;;;8.48;3.03;;;;;;;;;;5020109;28;20042;-81
2022/05/12 12:49:32;;;;;;;6.13;3.40;;;;;;;;;;5042509;28;20049;-80
2022/05/12 12:52:19;;;;;;;8.45;3.42;;;;;;;;;;5044685;28;20049;-80
2022/05/12 12:58:33;;;;;;;9.73;3.88;;;;;;;;;;5038715;28;20045;-79
2022/05/12 13:01:20;;;;;;;3.55;2.90;;;;;;;;;;5029721;28;20045;-80
2022/05/12 13:04:08;;;;;;;24.17;3.88;;;;;;;;;;5021006;28;20046;-81
2022/05/12 13:07:06;;;;;;;4.80;2.90;;;;;;;;;;5035538;28;20061;-79
2022/05/12 13:09:53;;;;;;;7.38;3.50;;;;;;;;;;5042543;28;20380;-82
2022/05/12 13:12:40;;;;;;;5.22;3.22;;;;;;;;;;5027266;28;20049;-80
2022/05/12 13:15:26;;;;;;;5.82;2.95;;;;;;;;;;5034467;28;20050;-81
2022/05/12 13:18:22;;;;;;;4.55;2.70;;;;;;;;;;5034697;28;20037;-80
2022/05/12 13:21:07;;;;;;;5.90;2.78;;;;;;;;;;5035297;28;20045;-79
2022/05/12 13:24:12;;;;;;;9.98;2.88;;;;;;;;;;5034843;28;20045;-80
2022/05/12 13:26:59;;;;;;;8.43;3.28;;;;;;;;;;5033450;28;20041;-80
2022/05/12 13:29:46;;;;;;;7.15;3.03;;;;;;;;;;5040022;28;20049;-81
2022/05/12 13:32:36;;;;;;;6.60;3.20;;;;;;;;;;5043790;28;20049;-81
2022/05/12 13:35:26;;;;;;;4.65;3.08;;;;;;;;;;5028836;28;20050;-80
2022/05/12 13:38:19;;;;;;;5.93;3.33;;;;;;;;;;5030382;28;20046;-80
2022/05/12 13:41:21;;;;;;;11.77;3.30;;;;;;;;;;5030233;28;20041;-80
2022/05/12 13:44:12;;;;;;;8.90;3.30;;;;;;;;;;5038371;28;20049;-80
2022/05/12 13:46:59;;;;;;;5.15;3.13;;;;;;;;;;5034936;28;20053;-79
2022/05/12 13:49:49;;;;;;;5.85;3.00;;;;;;;;;;5037687;28;20396;-84
2022/05/12 13:52:53;;;;;;;5.60;3.30;;;;;;;;;;5033678;28;20045;-84
2022/05/12 13:55:38;;;;;;;7.53;3.20;;;;;;;;;;5035015;28;20057;-84
2022/05/12 13:58:24;;;;;;;8.20;3.42;;;;;;;;;;5043837;28;20480;-85
2022/05/12 14:01:09;;;;;;;5.70;3.30;;;;;;;;;;5053283;28;20045;-84
2022/05/12 14:04:14;;;;;;;4.47;3.42;;;;;;;;;;5054905;28;20468;-85
2022/05/12 14:06:59;;;;;;;;;;;;;;;;;;5053875;28;20049;-81
2022/05/12 14:10:09;;;;;;;5.60;3.38;;;;;;;;;;5054586;28;19912;-79
2022/05/12 14:19:19;;;;;;;;;;;;;;;;;;5037793;28;20057;-79
2022/05/12 14:22:08;;;;;;;6.93;3.25;;;;;;;;;;5016486;28;19918;-79
2022/05/12 14:24:54;;;;;;;5.82;3.50;;;;;;;;;;5020872;28;20042;-81
2022/05/12 14:27:40;;;;;;;6.32;3.08;;;;;;;;;;5022444;28;20054;-81
2022/05/12 14:30:25;;;;;;;4.90;3.17;;;;;;;;;;5017628;28;20050;-81
2022/05/12 14:33:11;;;;;;;4.00;3.00;;;;;;;;;;5037862;28;20049;-81
2022/05/12 14:35:56;;;;;;;6.38;3.10;;;;;;;;;;5040329;28;20476;-81
2022/05/12 14:38:41;;;;;;;6.22;3.40;;;;;;;;;;5040359;28;20045;-81
2022/05/12 14:41:27;;;;;;;7.03;3.72;;;;;;;;;;5039684;28;20037;-81
2022/05/12 14:44:13;;;;;;;8.52;3.30;;;;;;;;;;5039645;28;20045;-81
2022/05/12 14:47:02;;;;;;;6.93;3.40;;;;;;;;;;5037768;28;20045;-80
2022/05/12 14:49:48;;;;;;;9.73;3.35;;;;;;;;;;5037825;28;20473;-80
2022/05/12 14:52:33;;;;;;;6.97;3.00;;;;;;;;;;5038649;28;20041;-80
2022/05/12 14:55:20;;;;;;;10.25;3.30;;;;;;;;;;5036576;28;20042;-82
2022/05/12 14:58:06;;;;;;;5.50;3.47;;;;;;;;;;5031224;28;20045;-81
2022/05/12 15:00:51;;;;;;;6.22;3.30;;;;;;;;;;5033483;28;20045;-81
2022/05/12 15:03:38;;;;;;;4.75;3.00;;;;;;;;;;5019196;28;20042;-82
2022/05/12 15:06:27;;;;;;;9.63;3.53;;;;;;;;;;5036808;28;20037;-81
2022/05/12 15:09:12;;;;;;;5.97;3.25;;;;;;;;;;5031316;28;20042;-81
2022/05/12 15:11:58;;;;;;;5.30;2.92;;;;;;;;;;5038177;28;20053;-81
2022/05/12 15:14:44;;;;;;;8.02;3.25;;;;;;;;;;5037049;28;20050;-81
2022/05/12 15:17:34;;;;;;;8.52;3.55;;;;;;;;;;5031835;28;20396;-80
2022/05/12 15:20:22;;;;;;;6.18;3.20;;;;;;;;;;5035090;28;20496;-80
2022/05/12 15:23:07;;;;;;;6.82;3.20;;;;;;;;;;5023702;28;20046;-79
2022/05/12 15:25:53;;;;;;;9.02;3.47;;;;;;;;;;5052874;28;20049;-79
2022/05/12 15:28:38;;;;;;;11.38;3.45;;;;;;;;;;5061448;28;20057;-79
2022/05/12 15:31:24;;;;;;;11.07;3.55;;;;;;;;;;5029032;28;20049;-81
2022/05/12 15:34:13;;;;;;;5.43;3.22;;;;;;;;;;5046787;28;20045;-79
2022/05/12 15:36:58;;;;;;;8.10;3.20;;;;;;;;;;5046439;28;20049;-82
2022/05/12 15:39:44;;;;;;;9.82;3.38;;;;;;;;;;5044859;28;20042;-81
2022/05/12 15:42:30;;;;;;;6.55;3.40;;;;;;;;;;5037632;28;20050;-79
2022/05/12 15:45:16;;;;;;;3.50;2.67;;;;;;;;;;5035662;28;20041;-80
2022/05/12 15:48:01;;;;;;;7.95;3.28;;;;;;;;;;5041605;28;20057;-80
2022/05/12 15:50:48;;;;;;;6.97;3.92;;;;;;;;;;5041537;28;20037;-79
2022/05/12 15:53:34;;;;;;;7.00;3.45;;;;;;;;;;5042306;28;20037;-78
2022/05/12 15:56:20;;;;;;;4.50;3.00;;;;;;;;;;5036032;28;20387;-79
2022/05/12 15:59:06;;;;;;;6.03;3.65;;;;;;;;;;5041590;28;20396;-80
2022/05/12 16:01:53;;;;;;;7.65;3.70;;;;;;;;;;5041262;28;20045;-80
2022/05/12 16:04:38;;;;;;;8.52;3.28;;;;;;;;;;5034542;28;20042;-80
2022/05/12 16:07:25;;;;;;;5.97;3.75;;;;;;;;;;5037753;28;20388;-80
2022/05/12 16:10:10;;;;;;;6.15;3.50;;;;;;;;;;5041776;28;20045;-81
2022/05/12 16:12:58;;;;;;;8.13;3.00;;;;;;;;;;5042519;28;20045;-79
2022/05/12 16:15:43;;;;;;;5.50;3.13;;;;;;;;;;5040215;28;20074;-79
2022/05/12 16:18:29;;;;;;;4.80;3.13;;;;;;;;;;5042967;28;20486;-81
2022/05/12 16:21:14;;;;;;;5.03;3.22;;;;;;;;;;5042704;28;20400;-80
2022/05/12 16:24:00;;;;;;;6.80;3.13;;;;;;;;;;5035097;28;20404;-81
2022/05/12 16:26:50;;;;;;;8.60;3.67;;;;;;;;;;5038264;28;20041;-80
2022/05/12 16:29:38;;;;;;;8.60;3.55;;;;;;;;;;5038243;28;20045;-81
2022/05/12 16:32:24;;;;;;;5.18;3.55;;;;;;;;;;5039774;28;20037;-81
2022/05/12 16:35:10;;;;;;;7.53;3.55;;;;;;;;;;5040570;28;20488;-79
2022/05/12 16:37:57;;;;;;;4.80;3.20;;;;;;;;;;5038558;28;20041;-80
2022/05/12 16:40:43;;;;;;;9.00;3.33;;;;;;;;;;5025985;28;20041;-79
2022/05/12 16:43:28;;;;;;;10.05;3.42;;;;;;;;;;5032542;28;20041;-80
2022/05/12 16:46:16;;;;;;;11.65;3.28;;;;;;;;;;5039785;28;20045;-80
2022/05/12 16:49:02;;;;;;;7.45;3.40;;;;;;;;;;5039439;28;20054;-80
2022/05/12 16:51:48;;;;;;;7.60;3.28;;;;;;;;;;5038850;28;20049;-80
2022/05/12 16:54:33;;;;;;;6.25;3.35;;;;;;;;;;5041345;28;20041;-80
2022/05/12 16:57:19;;;;;;;4.25;3.00;;;;;;;;;;5039252;28;20049;-78
2022/05/12 17:00:06;;;;;;;7.88;3.33;;;;;;;;;;5040766;28;20045;-78
2022/05/12 17:02:52;;;;;;;8.52;3.30;;;;;;;;;;5039384;28;20050;-78
2022/05/12 17:05:37;;;;;;;14.30;3.83;;;;;;;;;;5040493;28;20045;-79
2022/05/12 17:08:24;;;;;;;6.05;3.55;;;;;;;;;;5040999;28;20037;-79
2022/05/12 17:11:11;;;;;;;14.40;3.95;;;;;;;;;;5034826;28;20037;-79
2022/05/12 17:13:57;;;;;;;12.82;3.90;;;;;;;;;;5044393;28;20041;-80
2022/05/12 17:16:42;;;;;;;12.85;4.20;;;;;;;;;;5038764;28;20049;-80
2022/05/12 17:19:28;;;;;;;6.70;3.63;;;;;;;;;;5049075;28;20044;-78
2022/05/12 17:22:13;;;;;;;9.52;3.70;;;;;;;;;;5046568;28;20048;-80
2022/05/12 17:25:02;;;;;;;7.57;3.42;;;;;;;;;;5038712;28;20488;-80
2022/05/12 17:27:48;;;;;;;11.68;3.63;;;;;;;;;;5033426;28;20030;-81
2022/05/12 17:30:33;;;;;;;11.30;4.03;;;;;;;;;;5039929;28;20044;-80
2022/05/12 17:33:19;;;;;;;7.60;3.95;;;;;;;;;;5039292;28;20045;-80